createdAt,value
2023-06-17T00:00:57.087Z,9.07
2023-06-17T00:03:24.431Z,8.55
2023-06-17T00:05:52.987Z,8.93
2023-06-17T00:08:20.792Z,8.13
2023-06-17T00:10:48.106Z,8.52
2023-06-17T00:13:20.594Z,8.70
2023-06-17T00:15:52.453Z,8.38
2023-06-17T00:18:21.195Z,8.23
2023-06-17T00:20:49.648Z,7.75
2023-06-17T00:23:17.031Z,8.07
2023-06-17T00:25:44.265Z,8.32
2023-06-17T00:28:11.434Z,7.97
2023-06-17T00:30:38.746Z,7.45
2023-06-17T00:33:06.498Z,7.28
2023-06-17T00:35:34.747Z,8.15
2023-06-17T00:38:02.188Z,8.15
2023-06-17T00:40:29.425Z,7.50
2023-06-17T00:42:56.598Z,8.02
2023-06-17T00:45:23.739Z,7.43
2023-06-17T00:47:51.861Z,7.65
2023-06-17T00:50:19.643Z,7.57
2023-06-17T00:52:50.071Z,7.88
2023-06-17T00:55:17.298Z,8.32
2023-06-17T00:57:47.355Z,7.63
2023-06-17T01:00:16.422Z,7.90
2023-06-17T01:02:46.579Z,8.00
2023-06-17T01:05:18.490Z,8.35
2023-06-17T01:08:20.907Z,7.97
2023-06-17T01:10:51.108Z,8.65
2023-06-17T01:13:20.292Z,8.13
2023-06-17T01:15:48.706Z,7.90
2023-06-17T01:18:19.146Z,8.00
2023-06-17T01:20:49.989Z,7.85
2023-06-17T01:23:18.213Z,7.65
2023-06-17T01:25:47.211Z,7.72
2023-06-17T01:28:21.712Z,7.75
2023-06-17T01:30:49.459Z,8.23
2023-06-17T01:33:17.252Z,8.10
2023-06-17T01:35:54.226Z,7.60
2023-06-17T01:38:31.529Z,8.07
2023-06-17T01:41:11.276Z,7.70
2023-06-17T01:43:41.216Z,8.15
2023-06-17T01:46:08.843Z,7.85
2023-06-17T01:48:36.206Z,7.43
2023-06-17T01:51:03.646Z,7.88
2023-06-17T01:53:30.744Z,7.82
2023-06-17T01:55:57.986Z,8.55
2023-06-17T01:58:26.117Z,8.85
2023-06-17T02:00:53.283Z,8.23
2023-06-17T02:03:20.703Z,8.23
2023-06-17T02:05:47.978Z,7.50
2023-06-17T02:08:16.335Z,7.20
2023-06-17T02:10:43.554Z,6.90
2023-06-17T02:13:10.897Z,7.90
2023-06-17T02:15:40.033Z,7.95
2023-06-17T02:18:07.886Z,7.28
2023-06-17T02:20:35.363Z,8.38
2023-06-17T02:23:02.580Z,7.70
2023-06-17T02:25:29.729Z,7.60
2023-06-17T02:27:56.906Z,7.82
2023-06-17T02:30:24.251Z,8.02
2023-06-17T02:32:51.602Z,7.50
2023-06-17T02:35:18.726Z,7.57
2023-06-17T02:37:45.995Z,8.45
2023-06-17T02:40:13.280Z,8.07
2023-06-17T02:42:40.979Z,7.60
2023-06-17T02:45:08.740Z,7.45
2023-06-17T02:47:35.942Z,8.07
2023-06-17T02:50:03.099Z,8.13
2023-06-17T02:52:31.999Z,7.60
2023-06-17T02:54:59.225Z,7.68
2023-06-17T02:57:26.473Z,8.30
2023-06-17T02:59:53.934Z,9.18
2023-06-17T03:02:21.123Z,7.90
2023-06-17T03:04:49.752Z,8.45
2023-06-17T03:07:20.031Z,8.25
2023-06-17T03:09:47.264Z,7.35
2023-06-17T03:12:14.461Z,7.38
2023-06-17T03:14:41.675Z,7.53
2023-06-17T03:17:09.275Z,7.97
2023-06-17T03:19:37.479Z,7.70
2023-06-17T03:22:04.909Z,7.80
2023-06-17T03:24:32.297Z,7.30
2023-06-17T03:26:59.624Z,7.72
2023-06-17T03:29:26.922Z,7.45
2023-06-17T03:31:58.276Z,7.85
2023-06-17T03:34:26.490Z,7.32
2023-06-17T03:36:53.902Z,7.25
2023-06-17T03:39:21.051Z,7.68
2023-06-17T03:41:48.176Z,8.45
2023-06-17T03:44:15.726Z,7.30
2023-06-17T03:46:43.022Z,7.40
2023-06-17T03:49:10.187Z,7.53
2023-06-17T03:51:38.391Z,7.70
2023-06-17T03:54:05.615Z,7.63
2023-06-17T03:56:32.889Z,7.25
2023-06-17T03:59:00.176Z,7.72
2023-06-17T04:01:27.297Z,6.55
2023-06-17T04:03:54.446Z,7.32
2023-06-17T04:06:22.181Z,7.20
2023-06-17T04:08:49.589Z,6.55
2023-06-17T04:11:17.702Z,7.40
2023-06-17T04:13:44.928Z,6.88
2023-06-17T04:16:12.482Z,7.35
2023-06-17T04:18:41.494Z,7.80
2023-06-17T04:21:08.724Z,6.32
2023-06-17T04:23:36.115Z,5.93
2023-06-17T04:26:03.308Z,6.93
2023-06-17T04:28:33.463Z,6.10
2023-06-17T04:31:03.899Z,6.28
2023-06-17T04:33:32.091Z,6.22
2023-06-17T04:35:59.334Z,7.03
2023-06-17T04:38:26.464Z,6.07
2023-06-17T04:40:54.019Z,6.53
2023-06-17T04:43:25.423Z,6.43
2023-06-17T04:45:52.930Z,6.75
2023-06-17T04:48:20.958Z,6.70
2023-06-17T04:50:49.704Z,6.28
2023-06-17T04:53:16.905Z,5.70
2023-06-17T04:55:44.576Z,6.68
2023-06-17T04:58:11.793Z,5.40
2023-06-17T05:00:39.191Z,5.28
2023-06-17T05:03:06.679Z,5.80
2023-06-17T05:05:33.952Z,5.10
2023-06-17T05:08:01.413Z,5.55
2023-06-17T05:10:28.689Z,5.47
2023-06-17T05:12:55.946Z,4.90
2023-06-17T05:15:23.226Z,5.32
2023-06-17T05:17:50.807Z,4.30
2023-06-17T05:20:18.144Z,6.55
2023-06-17T05:22:45.559Z,5.75
2023-06-17T05:25:12.714Z,4.95
2023-06-17T05:27:39.940Z,5.60
2023-06-17T05:30:07.915Z,6.32
2023-06-17T05:32:35.211Z,5.25
2023-06-17T05:35:02.538Z,5.53
2023-06-17T05:37:29.831Z,5.22
2023-06-17T05:39:57.021Z,5.60
2023-06-17T05:42:24.184Z,5.55
2023-06-17T05:44:51.350Z,5.32
2023-06-17T05:47:18.515Z,5.95
2023-06-17T05:49:45.682Z,4.68
2023-06-17T05:52:14.251Z,4.68
2023-06-17T05:54:41.389Z,5.32
2023-06-17T05:57:08.652Z,5.72
2023-06-17T05:59:36.136Z,6.05
2023-06-17T06:02:03.584Z,5.95
2023-06-17T06:04:31.362Z,6.80
2023-06-17T06:06:58.489Z,6.38
2023-06-17T06:09:25.829Z,4.93
2023-06-17T06:11:53.053Z,4.85
2023-06-17T06:14:20.212Z,5.10
2023-06-17T06:16:47.617Z,4.95
2023-06-17T06:19:14.890Z,5.25
2023-06-17T06:21:42.117Z,5.50
2023-06-17T06:24:09.359Z,5.25
2023-06-17T06:26:36.616Z,5.20
2023-06-17T06:29:03.958Z,4.68
2023-06-17T06:31:31.562Z,4.22
2023-06-17T06:33:58.785Z,4.43
2023-06-17T06:36:25.907Z,5.10
2023-06-17T06:38:53.187Z,4.20
2023-06-17T06:41:20.456Z,4.50
2023-06-17T06:43:48.945Z,3.80
2023-06-17T06:46:16.696Z,4.57
2023-06-17T06:48:44.105Z,3.75
2023-06-17T06:51:11.500Z,4.03
2023-06-17T06:53:38.695Z,3.95
2023-06-17T06:56:05.939Z,4.25
2023-06-17T06:58:34.259Z,4.30
2023-06-17T07:01:01.563Z,5.05
2023-06-17T07:03:28.801Z,4.20
2023-06-17T07:05:56.167Z,4.30
2023-06-17T07:08:25.303Z,3.67
2023-06-17T07:10:52.430Z,3.67
2023-06-17T07:13:19.739Z,3.50
2023-06-17T07:15:47.076Z,4.00
2023-06-17T07:18:16.109Z,3.40
2023-06-17T07:20:43.763Z,3.83
2023-06-17T07:23:11.374Z,3.90
2023-06-17T07:25:38.563Z,5.32
2023-06-17T07:28:06.654Z,3.30
2023-06-17T07:30:34.118Z,4.50
2023-06-17T07:33:01.607Z,4.18
2023-06-17T07:35:30.307Z,4.05
2023-06-17T07:37:57.844Z,3.63
2023-06-17T07:40:25.149Z,3.85
2023-06-17T07:42:52.354Z,3.90
2023-06-17T07:45:19.616Z,3.55
2023-06-17T07:47:46.837Z,3.35
2023-06-17T07:50:14.066Z,3.42
2023-06-17T07:52:41.388Z,3.78
2023-06-17T07:55:12.190Z,3.50
2023-06-17T07:57:39.566Z,3.80
2023-06-17T08:00:11.371Z,3.00
2023-06-17T08:02:38.571Z,3.50
2023-06-17T08:05:06.245Z,2.97
2023-06-17T08:07:33.558Z,3.28
2023-06-17T08:10:00.984Z,3.63
2023-06-17T08:12:28.365Z,3.30
2023-06-17T08:14:55.765Z,3.38
2023-06-17T08:17:22.893Z,2.80
2023-06-17T08:19:50.131Z,3.17
2023-06-17T08:22:17.411Z,3.40
2023-06-17T08:24:44.619Z,2.85
2023-06-17T08:27:13.448Z,2.70
2023-06-17T08:29:41.330Z,2.50
2023-06-17T08:32:08.782Z,2.85
2023-06-17T08:34:36.955Z,2.53
2023-06-17T08:37:05.944Z,2.80
2023-06-17T08:39:33.513Z,2.42
2023-06-17T08:42:00.809Z,2.58
2023-06-17T08:44:32.977Z,2.67
2023-06-17T08:47:04.781Z,2.50
2023-06-17T08:49:32.257Z,2.92
2023-06-17T08:52:01.661Z,2.47
2023-06-17T08:54:29.467Z,2.67
2023-06-17T08:56:57.321Z,2.50
2023-06-17T08:59:24.540Z,2.45
2023-06-17T09:01:53.984Z,2.50
2023-06-17T09:04:23.346Z,2.25
2023-06-17T09:06:52.445Z,2.05
2023-06-17T09:09:20.345Z,2.28
2023-06-17T09:11:53.925Z,2.25
2023-06-17T09:14:23.778Z,2.28
2023-06-17T09:16:51.850Z,2.67
2023-06-17T09:19:19.160Z,2.47
2023-06-17T09:21:49.149Z,2.38
2023-06-17T09:24:16.463Z,2.17
2023-06-17T09:26:45.626Z,2.53
2023-06-17T09:29:14.690Z,2.28
2023-06-17T09:31:55.141Z,2.42
2023-06-17T09:34:23.020Z,2.30
2023-06-17T09:37:02.320Z,2.60
2023-06-17T09:39:34.143Z,2.38
2023-06-17T09:42:12.117Z,2.17
2023-06-17T09:44:41.245Z,2.50
2023-06-17T09:47:12.845Z,2.00
2023-06-17T09:49:40.292Z,2.47
2023-06-17T09:52:10.533Z,2.20
2023-06-17T09:54:39.099Z,2.20
2023-06-17T09:57:10.743Z,2.17
2023-06-17T09:59:39.204Z,2.80
2023-06-17T10:02:06.942Z,2.20
2023-06-17T10:04:36.445Z,2.85
2023-06-17T10:07:09.176Z,2.40
2023-06-17T10:09:37.112Z,2.03
2023-06-17T10:12:07.024Z,2.38
2023-06-17T10:14:35.415Z,2.45
2023-06-17T10:17:06.828Z,2.30
2023-06-17T10:19:38.659Z,2.53
2023-06-17T10:22:12.644Z,2.10
2023-06-17T10:24:40.421Z,2.13
2023-06-17T10:27:08.571Z,2.45
2023-06-17T10:29:36.481Z,2.17
2023-06-17T10:32:27.524Z,2.63
2023-06-17T10:35:07.121Z,2.30
2023-06-17T10:37:46.197Z,2.35
2023-06-17T10:40:22.878Z,2.30
2023-06-17T10:43:05.231Z,2.58
2023-06-17T10:45:34.174Z,2.63
2023-06-17T10:48:21.640Z,2.80
2023-06-17T10:51:01.866Z,2.67
2023-06-17T10:53:37.652Z,2.38
2023-06-17T10:56:06.589Z,2.30
2023-06-17T10:58:36.588Z,2.33
2023-06-17T11:01:03.899Z,2.35
2023-06-17T11:03:31.301Z,2.45
2023-06-17T11:05:59.885Z,2.67
2023-06-17T11:08:28.353Z,3.05
2023-06-17T11:11:06.259Z,2.70
2023-06-17T11:13:33.526Z,2.58
2023-06-17T11:16:00.734Z,2.40
2023-06-17T11:18:27.985Z,2.75
2023-06-17T11:20:55.226Z,2.55
2023-06-17T11:23:22.698Z,2.22
2023-06-17T11:25:53.558Z,2.35
2023-06-17T11:28:22.269Z,2.13
2023-06-17T11:30:51.011Z,2.40
2023-06-17T11:33:25.061Z,2.20
2023-06-17T11:35:54.845Z,2.03
2023-06-17T11:38:23.790Z,2.20
2023-06-17T11:40:55.638Z,2.45
2023-06-17T11:43:27.354Z,2.72
2023-06-17T11:45:57.634Z,2.08
2023-06-17T11:48:34.068Z,2.20
2023-06-17T11:51:01.556Z,2.40
2023-06-17T11:53:37.530Z,2.40
2023-06-17T11:56:09.363Z,2.40
2023-06-17T11:58:40.168Z,2.03
2023-06-17T12:01:08.651Z,2.60
2023-06-17T12:03:37.038Z,2.30
2023-06-17T12:06:05.333Z,2.10
2023-06-17T12:08:37.322Z,2.30
2023-06-17T12:11:09.006Z,1.98
2023-06-17T12:13:44.171Z,1.80
2023-06-17T12:16:13.047Z,2.03
2023-06-17T12:18:49.880Z,2.03
2023-06-17T12:21:17.088Z,1.80
2023-06-17T12:23:45.942Z,2.00
2023-06-17T12:26:14.064Z,2.13
2023-06-17T12:28:41.488Z,1.83
2023-06-17T12:31:09.958Z,2.03
2023-06-17T12:33:37.829Z,2.10
2023-06-17T12:36:09.086Z,2.17
2023-06-17T12:38:36.589Z,2.15
2023-06-17T12:41:03.834Z,2.10
2023-06-17T12:43:31.217Z,1.98
2023-06-17T12:46:02.227Z,2.08
2023-06-17T12:48:30.904Z,2.10
2023-06-17T12:50:58.746Z,1.95
2023-06-17T12:53:25.978Z,2.22
2023-06-17T12:55:56.681Z,2.08
2023-06-17T12:58:25.531Z,1.95
2023-06-17T13:00:53.573Z,2.03
2023-06-17T13:03:21.489Z,2.00
2023-06-17T13:05:49.907Z,1.90
2023-06-17T13:08:17.986Z,2.00
2023-06-17T13:10:45.241Z,1.77
2023-06-17T13:13:12.551Z,1.73
2023-06-17T13:15:40.106Z,1.90
2023-06-17T13:18:09.382Z,1.90
2023-06-17T13:20:36.916Z,2.00
2023-06-17T13:23:05.707Z,2.20
2023-06-17T13:25:33.024Z,2.10
2023-06-17T13:28:00.420Z,2.03
2023-06-17T13:30:27.601Z,2.10
2023-06-17T13:32:54.921Z,1.83
2023-06-17T13:35:22.686Z,2.17
2023-06-17T13:37:50.547Z,2.00
2023-06-17T13:40:18.184Z,2.10
2023-06-17T13:42:45.532Z,1.90
2023-06-17T13:45:15.525Z,2.30
2023-06-17T13:47:43.138Z,2.25
2023-06-17T13:50:10.934Z,2.20
2023-06-17T13:52:38.316Z,2.00
2023-06-17T13:55:06.153Z,1.90
2023-06-17T13:57:33.514Z,2.25
2023-06-17T14:00:00.722Z,2.00
2023-06-17T14:02:27.930Z,2.42
2023-06-17T14:04:55.768Z,2.13
2023-06-17T14:07:23.052Z,2.03
2023-06-17T14:09:50.278Z,2.13
2023-06-17T14:12:17.487Z,1.92
2023-06-17T14:14:46.200Z,2.08
2023-06-17T14:17:14.148Z,1.85
2023-06-17T14:19:41.387Z,2.00
2023-06-17T14:22:10.489Z,2.00
2023-06-17T14:24:40.369Z,2.00
2023-06-17T14:27:24.748Z,2.25
2023-06-17T14:29:51.965Z,2.20
2023-06-17T14:32:19.179Z,2.55
2023-06-17T14:34:46.458Z,2.20
2023-06-17T14:37:13.811Z,2.15
2023-06-17T14:39:41.166Z,2.30
2023-06-17T14:42:08.637Z,2.10
2023-06-17T14:44:35.935Z,2.42
2023-06-17T14:47:03.116Z,2.40
2023-06-17T14:49:30.496Z,2.00
2023-06-17T14:51:57.841Z,2.08
2023-06-17T14:54:25.014Z,2.10
2023-06-17T14:56:52.240Z,2.00
2023-06-17T14:59:19.503Z,2.28
2023-06-17T15:01:46.847Z,2.10
2023-06-17T15:04:14.721Z,1.88
2023-06-17T15:06:42.365Z,1.85
2023-06-17T15:09:28.459Z,1.67
2023-06-17T15:12:01.407Z,1.95
2023-06-17T15:14:31.749Z,2.10
2023-06-17T15:16:59.808Z,2.00
2023-06-17T15:19:27.108Z,1.60
2023-06-17T15:21:54.367Z,1.60
2023-06-17T15:24:21.765Z,1.73
2023-06-17T15:26:49.090Z,1.80
2023-06-17T15:29:16.984Z,1.83
2023-06-17T15:31:45.483Z,2.38
2023-06-17T15:34:12.687Z,1.55
2023-06-17T15:36:40.050Z,2.90
2023-06-17T15:39:29.106Z,2.30
2023-06-17T15:41:56.473Z,2.17
2023-06-17T15:44:23.840Z,2.17
2023-06-17T15:46:51.927Z,2.00
2023-06-17T15:49:19.716Z,1.98
2023-06-17T15:51:46.884Z,2.10
2023-06-17T15:54:14.494Z,2.30
2023-06-17T15:56:47.579Z,1.88
2023-06-17T15:59:15.043Z,2.10
2023-06-17T16:01:42.394Z,1.90
2023-06-17T16:04:36.402Z,2.10
2023-06-17T16:07:09.113Z,2.55
2023-06-17T16:09:38.344Z,2.28
2023-06-17T16:12:06.780Z,2.20
2023-06-17T16:14:34.615Z,2.38
2023-06-17T16:17:04.560Z,3.75
2023-06-17T16:19:36.964Z,3.33
2023-06-17T16:22:13.529Z,3.35
2023-06-17T16:24:43.120Z,3.97
2023-06-17T16:27:12.128Z,2.63
2023-06-17T16:29:39.498Z,2.50
2023-06-17T16:32:07.152Z,2.17
2023-06-17T16:34:34.598Z,2.35
2023-06-17T16:37:02.024Z,3.00
2023-06-17T16:39:29.586Z,3.17
2023-06-17T16:41:56.863Z,1.90
2023-06-17T16:44:24.068Z,2.40
2023-06-17T16:46:51.274Z,2.40
2023-06-17T16:49:18.578Z,2.50
2023-06-17T16:51:46.206Z,2.58
2023-06-17T16:54:13.385Z,1.83
2023-06-17T16:56:41.185Z,2.42
2023-06-17T16:59:08.423Z,2.30
2023-06-17T17:01:35.741Z,2.03
2023-06-17T17:04:10.567Z,2.08
2023-06-17T17:06:38.937Z,2.35
2023-06-17T17:09:06.393Z,2.53
2023-06-17T17:11:33.770Z,2.42
2023-06-17T17:14:01.324Z,3.17
2023-06-17T17:16:29.082Z,2.40
2023-06-17T17:18:56.458Z,2.83
2023-06-17T17:21:23.690Z,3.17
2023-06-17T17:23:50.942Z,2.67
2023-06-17T17:26:18.281Z,2.10
2023-06-17T17:28:46.235Z,2.40
2023-06-17T17:31:13.551Z,2.20
2023-06-17T17:33:40.795Z,1.90
2023-06-17T17:36:08.074Z,2.10
2023-06-17T17:38:35.279Z,2.20
2023-06-17T17:41:02.611Z,2.15
2023-06-17T17:43:31.125Z,2.10
2023-06-17T17:45:58.932Z,2.25
2023-06-17T17:48:26.295Z,2.63
2023-06-17T17:50:53.506Z,2.25
2023-06-17T17:53:20.670Z,2.40
2023-06-17T17:55:47.957Z,3.03
2023-06-17T17:58:17.167Z,5.10
2023-06-17T18:00:44.417Z,6.05
2023-06-17T18:03:12.082Z,5.53
2023-06-17T18:05:39.423Z,6.35
2023-06-17T18:08:06.731Z,6.88
2023-06-17T18:10:33.975Z,8.70
2023-06-17T18:13:01.123Z,9.80
2023-06-17T18:15:28.921Z,8.73
2023-06-17T18:17:56.176Z,10.85
2023-06-17T18:20:23.961Z,11.48
2023-06-17T18:22:52.406Z,8.43
2023-06-17T18:25:19.608Z,7.55
2023-06-17T18:27:46.854Z,6.30
2023-06-17T18:30:15.540Z,5.35
2023-06-17T18:32:42.851Z,4.57
2023-06-17T18:35:10.222Z,5.30
2023-06-17T18:37:38.243Z,5.50
2023-06-17T18:40:06.027Z,5.10
2023-06-17T18:42:33.623Z,4.50
2023-06-17T18:45:00.883Z,4.63
2023-06-17T18:47:28.093Z,5.03
2023-06-17T18:49:55.334Z,4.40
2023-06-17T18:52:22.585Z,4.85
2023-06-17T18:54:49.776Z,5.07
2023-06-17T18:57:17.084Z,6.70
2023-06-17T18:59:44.288Z,8.50
2023-06-17T19:02:11.519Z,5.63
2023-06-17T19:04:38.761Z,5.32
2023-06-17T19:07:05.948Z,5.30
2023-06-17T19:09:33.216Z,5.85
2023-06-17T19:12:03.029Z,15.55
2023-06-17T19:14:30.230Z,7.13
2023-06-17T19:16:57.551Z,4.50
2023-06-17T19:19:24.827Z,4.22
2023-06-17T19:21:52.107Z,5.95
2023-06-17T19:24:21.978Z,5.18
2023-06-17T19:26:49.293Z,6.97
2023-06-17T19:29:16.560Z,4.97
2023-06-17T19:31:43.796Z,3.50
2023-06-17T19:34:11.053Z,3.83
2023-06-17T19:36:38.350Z,4.07
2023-06-17T19:39:05.678Z,4.20
2023-06-17T19:41:32.901Z,4.90
2023-06-17T19:44:00.183Z,4.20
2023-06-17T19:46:28.614Z,3.72
2023-06-17T19:48:55.943Z,3.75
2023-06-17T19:51:23.150Z,3.88
2023-06-17T19:53:51.116Z,3.78
2023-06-17T19:56:19.713Z,4.40
2023-06-17T19:58:47.323Z,4.80
2023-06-17T20:01:14.607Z,4.47
2023-06-17T20:03:41.958Z,3.88
2023-06-17T20:06:09.309Z,7.38
2023-06-17T20:08:36.471Z,4.05
2023-06-17T20:11:03.886Z,4.35
2023-06-17T20:13:31.123Z,5.22
2023-06-17T20:15:58.454Z,4.60
2023-06-17T20:18:25.853Z,4.38
2023-06-17T20:20:53.098Z,4.10
2023-06-17T20:23:20.480Z,5.57
2023-06-17T20:25:48.024Z,4.80
2023-06-17T20:28:15.282Z,5.50
2023-06-17T20:30:42.568Z,5.32
2023-06-17T20:33:09.900Z,4.55
2023-06-17T20:35:37.172Z,4.90
2023-06-17T20:38:04.348Z,5.20
2023-06-17T20:40:31.699Z,5.70
2023-06-17T20:42:58.954Z,4.82
2023-06-17T20:45:26.225Z,5.63
2023-06-17T20:47:53.542Z,5.13
2023-06-17T20:50:20.895Z,4.65
2023-06-17T20:52:48.301Z,4.50
2023-06-17T20:55:15.777Z,5.15
2023-06-17T20:57:43.430Z,5.10
2023-06-17T21:00:11.311Z,5.00
2023-06-17T21:02:39.092Z,5.38
2023-06-17T21:05:06.593Z,6.03
2023-06-17T21:07:33.800Z,6.25
2023-06-17T21:10:01.523Z,5.47
2023-06-17T21:12:29.044Z,5.47
2023-06-17T21:14:56.286Z,5.82
2023-06-17T21:17:23.467Z,5.78
2023-06-17T21:19:50.893Z,6.30
2023-06-17T21:22:18.455Z,5.85
2023-06-17T21:24:45.781Z,5.22
2023-06-17T21:27:13.022Z,4.78
2023-06-17T21:29:40.584Z,5.20
2023-06-17T21:32:10.402Z,5.60
2023-06-17T21:34:40.960Z,5.25
2023-06-17T21:37:08.652Z,5.70
2023-06-17T21:39:35.833Z,6.38
2023-06-17T21:42:03.076Z,5.63
2023-06-17T21:44:34.652Z,5.50
2023-06-17T21:47:03.764Z,5.75
2023-06-17T21:49:31.059Z,5.75
2023-06-17T21:51:58.306Z,5.40
2023-06-17T21:54:25.480Z,6.35
2023-06-17T21:56:52.709Z,6.22
2023-06-17T21:59:19.909Z,5.40
2023-06-17T22:01:47.266Z,5.40
2023-06-17T22:04:14.490Z,5.60
2023-06-17T22:06:41.680Z,4.90
2023-06-17T22:09:08.871Z,5.20
2023-06-17T22:11:36.038Z,5.65
2023-06-17T22:14:03.238Z,5.15
2023-06-17T22:16:30.488Z,4.68
2023-06-17T22:18:57.988Z,5.10
2023-06-17T22:21:25.242Z,5.30
2023-06-17T22:23:52.462Z,5.03
2023-06-17T22:26:19.807Z,5.03
2023-06-17T22:28:47.120Z,4.82
2023-06-17T22:31:14.414Z,4.57
2023-06-17T22:33:41.664Z,4.60
2023-06-17T22:36:08.851Z,4.72
2023-06-17T22:38:36.105Z,4.78
2023-06-17T22:41:03.381Z,5.53
2023-06-17T22:43:30.716Z,5.55
2023-06-17T22:45:57.828Z,4.60
2023-06-17T22:48:25.036Z,4.65
2023-06-17T22:50:52.674Z,4.90
2023-06-17T22:53:19.941Z,4.35
2023-06-17T22:55:47.950Z,4.40
2023-06-17T22:58:15.112Z,4.90
2023-06-17T23:00:42.312Z,4.45
2023-06-17T23:03:11.968Z,4.63
2023-06-17T23:05:39.216Z,4.30
2023-06-17T23:08:06.436Z,4.35
2023-06-17T23:10:33.601Z,4.53
2023-06-17T23:13:00.741Z,4.47
2023-06-17T23:15:28.025Z,4.20
2023-06-17T23:17:55.216Z,4.50
2023-06-17T23:20:22.783Z,4.32
2023-06-17T23:22:51.204Z,4.78
2023-06-17T23:25:18.827Z,4.80
2023-06-17T23:27:49.738Z,4.85
2023-06-17T23:30:16.960Z,4.43
2023-06-17T23:32:44.433Z,3.92
2023-06-17T23:35:11.637Z,4.40
2023-06-17T23:37:38.839Z,5.13
2023-06-17T23:40:06.995Z,4.53
2023-06-17T23:42:34.197Z,4.35
2023-06-17T23:45:02.071Z,4.53
2023-06-17T23:47:29.321Z,4.10
2023-06-17T23:49:56.476Z,4.25
2023-06-17T23:52:23.774Z,4.22
2023-06-17T23:54:51.088Z,4.18
2023-06-17T23:57:18.288Z,4.32
2023-06-17T23:59:45.522Z,4.38
